Time;durP1;ratioP1;P1;durP2;ratioP2;P2;SDS_P1;SDS_P2;PMS_P1;PMS_P2;Temp;Humidity;BMP_temperature;BMP_pressure;BME280_temperature;BME280_humidity;BME280_pressure;Samples;Min_cycle;Max_cycle;Signal;HPM_P1;HPM_P2
2024/02/03 06:02:38;;;;;;;10.60;6.70;;;;;;;;;;4973296;28;20518;-73
2024/02/03 06:05:04;;;;;;;9.80;4.90;;;;;;;;;;4976692;28;20408;-73
2024/02/03 06:07:30;;;;;;;15.83;7.03;;;;;;;;;;4975652;28;20415;-73
2024/02/03 06:09:56;;;;;;;14.17;6.67;;;;;;;;;;4975363;28;20408;-73
2024/02/03 06:12:22;;;;;;;14.47;6.60;;;;;;;;;;4975067;28;20483;-73
2024/02/03 06:14:48;;;;;;;9.90;6.17;;;;;;;;;;4976094;28;20459;-74
2024/02/03 06:17:14;;;;;;;7.97;5.20;;;;;;;;;;4974913;28;20452;-74
2024/02/03 06:19:40;;;;;;;13.63;6.13;;;;;;;;;;4974934;28;20420;-73
2024/02/03 06:22:06;;;;;;;15.77;6.13;;;;;;;;;;4974779;28;20465;-74
2024/02/03 06:24:32;;;;;;;14.20;6.17;;;;;;;;;;4975107;28;20427;-74
2024/02/03 06:26:58;;;;;;;11.53;5.33;;;;;;;;;;4974692;28;20499;-73
2024/02/03 06:29:24;;;;;;;9.97;6.87;;;;;;;;;;4974826;28;20919;-73
2024/02/03 06:31:50;;;;;;;12.67;5.70;;;;;;;;;;4974634;28;20911;-73
2024/02/03 06:34:16;;;;;;;11.10;6.30;;;;;;;;;;4974762;28;20809;-74
2024/02/03 06:36:42;;;;;;;11.10;6.10;;;;;;;;;;4974550;28;20411;-73
2024/02/03 06:39:08;;;;;;;12.77;6.27;;;;;;;;;;4978821;28;20763;-73
2024/02/03 06:41:34;;;;;;;18.37;7.03;;;;;;;;;;4974918;28;20915;-72
2024/02/03 06:44:00;;;;;;;15.13;6.87;;;;;;;;;;4974659;28;20411;-73
2024/02/03 06:46:26;;;;;;;11.30;5.03;;;;;;;;;;4974984;28;20782;-73
2024/02/03 06:48:52;;;;;;;10.50;6.00;;;;;;;;;;4974557;28;20412;-72
2024/02/03 06:51:18;;;;;;;9.00;5.50;;;;;;;;;;4975075;28;21181;-73
2024/02/03 06:53:44;;;;;;;10.27;5.70;;;;;;;;;;4973662;28;20514;-74
2024/02/03 06:56:10;;;;;;;38.57;6.07;;;;;;;;;;4974722;28;20424;-73
2024/02/03 06:58:36;;;;;;;13.47;6.37;;;;;;;;;;4974934;28;20602;-73
2024/02/03 07:01:02;;;;;;;15.60;6.83;;;;;;;;;;4973404;28;20917;-74
2024/02/03 07:03:28;;;;;;;15.57;7.40;;;;;;;;;;4987399;28;20408;-73
2024/02/03 07:05:54;;;;;;;16.17;6.23;;;;;;;;;;4993422;28;20416;-74
2024/02/03 07:08:20;;;;;;;10.40;6.47;;;;;;;;;;4993111;28;20499;-73
2024/02/03 07:10:46;;;;;;;11.37;5.90;;;;;;;;;;4989267;28;20878;-73
2024/02/03 07:13:12;;;;;;;12.23;6.17;;;;;;;;;;4980507;28;20490;-75
2024/02/03 07:15:38;;;;;;;11.23;5.67;;;;;;;;;;4985382;28;20420;-74
2024/02/03 07:18:04;;;;;;;12.53;6.17;;;;;;;;;;4987987;28;20452;-78
2024/02/03 07:20:30;;;;;;;21.10;6.63;;;;;;;;;;4992927;28;20440;-75
2024/02/03 07:22:56;;;;;;;16.93;6.10;;;;;;;;;;4989509;28;20428;-74
2024/02/03 07:25:22;;;;;;;14.33;6.33;;;;;;;;;;4987554;28;20491;-75
2024/02/03 07:27:48;;;;;;;15.93;7.17;;;;;;;;;;4982318;28;20427;-76
2024/02/03 07:30:14;;;;;;;12.43;7.07;;;;;;;;;;4979008;28;20756;-76
2024/02/03 07:32:40;;;;;;;11.57;5.93;;;;;;;;;;4975454;28;20435;-77
2024/02/03 07:35:06;;;;;;;8.87;5.53;;;;;;;;;;4973778;28;20424;-76
2024/02/03 07:37:32;;;;;;;14.20;7.20;;;;;;;;;;4980820;28;20479;-79
2024/02/03 07:39:58;;;;;;;15.03;6.23;;;;;;;;;;4974936;28;20420;-77
2024/02/03 07:42:24;;;;;;;11.07;5.23;;;;;;;;;;4975406;28;20852;-73
2024/02/03 07:44:50;;;;;;;10.90;5.63;;;;;;;;;;4974213;28;20416;-74
2024/02/03 07:47:16;;;;;;;14.73;5.70;;;;;;;;;;4974671;28;20771;-74
2024/02/03 07:49:42;;;;;;;13.87;7.70;;;;;;;;;;4974544;28;20443;-74
2024/02/03 07:52:08;;;;;;;12.20;6.80;;;;;;;;;;4974272;28;20435;-75
2024/02/03 07:54:34;;;;;;;16.03;7.13;;;;;;;;;;4974264;28;20486;-75
2024/02/03 07:57:00;;;;;;;10.90;5.93;;;;;;;;;;4973687;28;20506;-74
2024/02/03 07:59:29;;;;;;;16.23;5.80;;;;;;;;;;4974073;28;20418;-74
2024/02/03 08:01:55;;;;;;;10.73;5.80;;;;;;;;;;4974363;28;20451;-73
2024/02/03 08:04:21;;;;;;;9.43;5.80;;;;;;;;;;4973998;28;20818;-74
2024/02/03 08:06:47;;;;;;;9.23;6.67;;;;;;;;;;4973575;28;20476;-74
2024/02/03 08:09:13;;;;;;;12.77;7.13;;;;;;;;;;4974395;28;20833;-74
2024/02/03 08:11:39;;;;;;;11.23;6.20;;;;;;;;;;4976911;28;20439;-75
2024/02/03 08:14:05;;;;;;;8.13;5.83;;;;;;;;;;4984939;28;20818;-75
2024/02/03 08:16:31;;;;;;;12.23;6.67;;;;;;;;;;4990768;28;20426;-74
2024/02/03 08:18:57;;;;;;;11.37;6.07;;;;;;;;;;4993708;28;20490;-74
2024/02/03 08:21:23;;;;;;;13.57;7.00;;;;;;;;;;4992095;28;20436;-74
2024/02/03 08:23:49;;;;;;;13.10;5.83;;;;;;;;;;4993056;28;20439;-75
2024/02/03 08:26:15;;;;;;;14.50;6.77;;;;;;;;;;4990742;28;20867;-74
2024/02/03 08:28:41;;;;;;;10.03;5.77;;;;;;;;;;4981984;28;20423;-74
2024/02/03 08:31:07;;;;;;;14.83;7.27;;;;;;;;;;4978440;28;20445;-74
2024/02/03 08:33:33;;;;;;;12.13;5.90;;;;;;;;;;4977277;28;20982;-74
2024/02/03 08:35:59;;;;;;;10.93;5.97;;;;;;;;;;4977330;28;20416;-73
2024/02/03 08:38:25;;;;;;;10.50;5.97;;;;;;;;;;4977361;28;20455;-75
2024/02/03 08:40:51;;;;;;;16.13;7.03;;;;;;;;;;4977703;28;20448;-75
2024/02/03 08:43:17;;;;;;;17.53;6.90;;;;;;;;;;4977419;28;20420;-75
2024/02/03 08:45:43;;;;;;;13.37;6.73;;;;;;;;;;4977138;28;20860;-73
2024/02/03 08:48:09;;;;;;;12.17;6.57;;;;;;;;;;4977254;28;20907;-74
2024/02/03 08:50:35;;;;;;;15.63;6.37;;;;;;;;;;4976572;28;20531;-74
2024/02/03 08:53:01;;;;;;;14.17;6.93;;;;;;;;;;4976651;28;20424;-74
2024/02/03 08:55:27;;;;;;;12.60;7.57;;;;;;;;;;4976623;28;20415;-75
2024/02/03 08:57:53;;;;;;;13.57;8.10;;;;;;;;;;4977029;28;20471;-74
2024/02/03 09:00:19;;;;;;;13.30;7.17;;;;;;;;;;4976302;28;20543;-74
2024/02/03 09:02:45;;;;;;;12.40;7.43;;;;;;;;;;4974928;28;20424;-74
2024/02/03 09:05:11;;;;;;;13.43;6.90;;;;;;;;;;4977399;28;20420;-74
2024/02/03 09:07:37;;;;;;;13.10;8.00;;;;;;;;;;4983485;28;20420;-74
2024/02/03 09:10:03;;;;;;;14.60;7.83;;;;;;;;;;4985728;28;20434;-75
2024/02/03 09:12:29;;;;;;;15.07;7.63;;;;;;;;;;4987127;28;20499;-75
2024/02/03 09:14:55;;;;;;;13.07;7.03;;;;;;;;;;4985931;28;20412;-75
2024/02/03 09:17:21;;;;;;;18.63;7.83;;;;;;;;;;4981678;28;20458;-76
2024/02/03 09:19:48;;;;;;;12.67;6.63;;;;;;;;;;4985847;28;20463;-74
2024/02/03 09:22:14;;;;;;;13.80;7.53;;;;;;;;;;4980456;28;20518;-73
2024/02/03 09:24:40;;;;;;;13.33;6.97;;;;;;;;;;4984550;28;20417;-73
2024/02/03 09:27:06;;;;;;;15.67;7.53;;;;;;;;;;4979394;28;20431;-73
2024/02/03 09:29:32;;;;;;;16.97;7.57;;;;;;;;;;4979655;28;20491;-73
2024/02/03 09:31:58;;;;;;;17.40;8.93;;;;;;;;;;4980563;28;20443;-74
2024/02/03 09:34:25;;;;;;;13.33;7.27;;;;;;;;;;4977937;28;20451;-74
2024/02/03 09:36:51;;;;;;;11.63;6.60;;;;;;;;;;4978488;28;20943;-73
2024/02/03 09:39:17;;;;;;;21.20;8.17;;;;;;;;;;4978419;28;20496;-73
2024/02/03 09:41:43;;;;;;;10.93;7.00;;;;;;;;;;4977917;28;20512;-74
2024/02/03 09:44:09;;;;;;;16.00;7.20;;;;;;;;;;4982372;28;20445;-74
2024/02/03 09:46:35;;;;;;;17.83;7.87;;;;;;;;;;4984610;28;20408;-76
2024/02/03 09:49:01;;;;;;;11.57;6.53;;;;;;;;;;4978878;28;20415;-74
2024/02/03 09:51:30;;;;;;;14.00;7.03;;;;;;;;;;4978259;28;20431;-74
2024/02/03 09:53:57;;;;;;;14.23;7.03;;;;;;;;;;4980515;28;20427;-73
2024/02/03 09:56:22;;;;;;;17.43;8.40;;;;;;;;;;4986253;28;20455;-73
2024/02/03 09:58:49;;;;;;;18.90;7.53;;;;;;;;;;4976382;28;20866;-73
2024/02/03 10:01:15;;;;;;;13.27;8.33;;;;;;;;;;4977916;28;20444;-74
2024/02/03 10:03:45;;;;;;;12.93;6.30;;;;;;;;;;4975246;28;20463;-73
2024/02/03 10:06:13;;;;;;;10.97;5.20;;;;;;;;;;4975079;28;20464;-74
2024/02/03 10:08:39;;;;;;;7.87;4.97;;;;;;;;;;4973575;28;20428;-75
2024/02/03 10:11:05;;;;;;;11.30;6.70;;;;;;;;;;4974152;28;20459;-74
2024/02/03 10:13:33;;;;;;;8.10;4.90;;;;;;;;;;4974731;28;20815;-74
2024/02/03 10:16:02;;;;;;;8.50;5.13;;;;;;;;;;4974751;28;20417;-73
2024/02/03 10:18:28;;;;;;;10.43;5.80;;;;;;;;;;4974923;28;20459;-74
2024/02/03 10:20:55;;;;;;;13.30;6.87;;;;;;;;;;4973985;28;20951;-74
2024/02/03 10:23:22;;;;;;;10.27;5.63;;;;;;;;;;4974958;28;20416;-74
2024/02/03 10:25:47;;;;;;;10.17;6.53;;;;;;;;;;4974654;28;20420;-74
2024/02/03 10:28:18;;;;;;;12.10;5.17;;;;;;;;;;4974416;28;20514;-73
2024/02/03 10:30:43;;;;;;;8.40;5.40;;;;;;;;;;4975077;28;20442;-73
2024/02/03 10:33:10;;;;;;;8.33;5.63;;;;;;;;;;4980999;28;20423;-74
2024/02/03 10:35:36;;;;;;;13.80;6.33;;;;;;;;;;4973087;28;20420;-74
2024/02/03 10:38:03;;;;;;;9.47;5.50;;;;;;;;;;4974533;28;20989;-73
2024/02/03 10:40:31;;;;;;;9.10;5.20;;;;;;;;;;4973930;28;21760;-74
2024/02/03 10:42:57;;;;;;;8.40;4.70;;;;;;;;;;4974574;28;20419;-73
2024/02/03 10:45:27;;;;;;;5.90;3.80;;;;;;;;;;4974349;28;20418;-74
2024/02/03 10:47:55;;;;;;;8.00;3.90;;;;;;;;;;4974363;28;20415;-73
2024/02/03 10:50:24;;;;;;;5.63;3.60;;;;;;;;;;4974393;28;20418;-75
2024/02/03 10:52:53;;;;;;;5.37;3.57;;;;;;;;;;4974210;28;20447;-74
2024/02/03 10:55:20;;;;;;;7.50;4.70;;;;;;;;;;4974548;28;20431;-73
2024/02/03 10:57:47;;;;;;;4.83;3.10;;;;;;;;;;4976860;28;20551;-74
2024/02/03 11:00:16;;;;;;;7.53;4.10;;;;;;;;;;4974057;28;20506;-73
2024/02/03 11:02:52;;;;;;;7.03;4.37;;;;;;;;;;4974353;28;20408;-74
2024/02/03 11:05:18;;;;;;;6.40;3.97;;;;;;;;;;4974745;28;20435;-74
2024/02/03 11:07:48;;;;;;;5.70;3.70;;;;;;;;;;4975362;28;20491;-74
2024/02/03 11:10:15;;;;;;;5.10;3.83;;;;;;;;;;4975320;28;20430;-74
2024/02/03 11:12:42;;;;;;;5.30;3.90;;;;;;;;;;4974526;28;20412;-74
2024/02/03 11:15:17;;;;;;;5.73;3.60;;;;;;;;;;4974334;28;20466;-74
2024/02/03 11:17:43;;;;;;;7.63;4.00;;;;;;;;;;4974134;28;21058;-73
2024/02/03 11:20:22;;;;;;;7.20;4.20;;;;;;;;;;4972774;28;20438;-73
2024/02/03 11:22:55;;;;;;;7.00;4.47;;;;;;;;;;4975428;28;20412;-73
2024/02/03 11:25:21;;;;;;;6.73;3.87;;;;;;;;;;4975165;28;20412;-73
2024/02/03 11:27:47;;;;;;;7.50;3.70;;;;;;;;;;4976592;28;20474;-74
2024/02/03 11:30:17;;;;;;;10.30;4.27;;;;;;;;;;4972995;28;20939;-74
2024/02/03 11:32:43;;;;;;;6.17;3.77;;;;;;;;;;4974503;28;20411;-73
2024/02/03 11:35:09;;;;;;;6.57;3.67;;;;;;;;;;4974096;28;20416;-74
2024/02/03 11:37:36;;;;;;;3.97;3.10;;;;;;;;;;4974806;28;20936;-74
2024/02/03 11:40:09;;;;;;;7.43;3.70;;;;;;;;;;4974256;28;20408;-75
2024/02/03 11:42:35;;;;;;;9.10;3.30;;;;;;;;;;4975710;28;20487;-74
2024/02/03 11:45:09;;;;;;;4.30;3.17;;;;;;;;;;4983781;28;20416;-74
2024/02/03 11:47:35;;;;;;;6.90;3.77;;;;;;;;;;4989702;28;20412;-74
2024/02/03 11:50:01;;;;;;;8.50;3.27;;;;;;;;;;4991848;28;20422;-74
2024/02/03 11:52:27;;;;;;;9.43;4.00;;;;;;;;;;4978567;28;20439;-73
2024/02/03 11:54:53;;;;;;;9.83;3.53;;;;;;;;;;4977814;28;20416;-73
2024/02/03 11:57:19;;;;;;;5.10;3.43;;;;;;;;;;4977545;28;20483;-74
2024/02/03 11:59:45;;;;;;;5.23;3.33;;;;;;;;;;4977222;28;20420;-72
2024/02/03 12:02:15;;;;;;;8.47;3.20;;;;;;;;;;4975743;28;20459;-74
2024/02/03 12:04:41;;;;;;;5.40;3.13;;;;;;;;;;4977517;28;20474;-75
2024/02/03 12:07:07;;;;;;;6.67;2.77;;;;;;;;;;4977269;28;20503;-73
2024/02/03 12:09:33;;;;;;;7.97;3.27;;;;;;;;;;4977232;28;20454;-73
2024/02/03 12:11:59;;;;;;;3.13;2.70;;;;;;;;;;4977189;28;20828;-74
2024/02/03 12:14:29;;;;;;;4.90;2.77;;;;;;;;;;4984556;28;20412;-75
2024/02/03 12:16:54;;;;;;;3.80;2.50;;;;;;;;;;4976948;28;20420;-75
2024/02/03 12:19:23;;;;;;;3.77;2.30;;;;;;;;;;4976509;28;20411;-74
2024/02/03 12:21:50;;;;;;;1.80;1.20;;;;;;;;;;4975583;28;20848;-75
2024/02/03 12:24:17;;;;;;;1.37;1.33;;;;;;;;;;4976936;28;20475;-74
2024/02/03 12:26:44;;;;;;;1.83;1.47;;;;;;;;;;4976919;28;20419;-74
2024/02/03 12:29:10;;;;;;;2.00;1.40;;;;;;;;;;4977020;28;20419;-75
2024/02/03 12:31:36;;;;;;;1.07;1.00;;;;;;;;;;4977189;28;20423;-74
2024/02/03 12:34:02;;;;;;;2.47;1.40;;;;;;;;;;4977086;28;20408;-75
2024/02/03 12:36:28;;;;;;;1.93;1.17;;;;;;;;;;4979459;28;20834;-74
2024/02/03 12:38:55;;;;;;;1.80;1.17;;;;;;;;;;4979044;28;20463;-74
2024/02/03 12:41:21;;;;;;;1.10;0.90;;;;;;;;;;4976811;28;20481;-75
2024/02/03 12:43:47;;;;;;;1.00;0.90;;;;;;;;;;4977141;28;20447;-74
2024/02/03 12:46:16;;;;;;;2.10;1.20;;;;;;;;;;4977807;28;20423;-75
2024/02/03 12:48:43;;;;;;;1.33;1.27;;;;;;;;;;4977570;28;20420;-75
2024/02/03 12:51:09;;;;;;;1.10;1.00;;;;;;;;;;4976138;28;20502;-74
2024/02/03 12:53:35;;;;;;;0.90;0.80;;;;;;;;;;4977159;28;20419;-74
2024/02/03 12:56:01;;;;;;;1.10;1.00;;;;;;;;;;4977079;28;20412;-74
2024/02/03 12:58:30;;;;;;;0.80;0.70;;;;;;;;;;4973793;28;20490;-74
2024/02/03 13:00:56;;;;;;;0.80;0.80;;;;;;;;;;4975065;28;21045;-75
2024/02/03 13:03:22;;;;;;;0.80;0.70;;;;;;;;;;4976609;28;20408;-76
2024/02/03 13:05:48;;;;;;;0.70;0.60;;;;;;;;;;4974850;28;20499;-74
2024/02/03 13:08:15;;;;;;;0.90;0.80;;;;;;;;;;4976019;28;20443;-74
2024/02/03 13:10:43;;;;;;;1.00;0.80;;;;;;;;;;4977188;28;20439;-74
2024/02/03 13:13:09;;;;;;;1.17;0.80;;;;;;;;;;4977231;28;20423;-75
2024/02/03 13:15:35;;;;;;;0.93;0.87;;;;;;;;;;4979115;28;20416;-74
2024/02/03 13:18:01;;;;;;;0.90;0.80;;;;;;;;;;4978439;28;20467;-74
2024/02/03 13:20:27;;;;;;;2.63;0.83;;;;;;;;;;4979617;28;20499;-74
2024/02/03 13:22:53;;;;;;;1.07;0.97;;;;;;;;;;4976703;28;20411;-74
2024/02/03 13:25:18;;;;;;;2.37;1.10;;;;;;;;;;4977452;28;20900;-73
2024/02/03 13:27:45;;;;;;;0.90;0.90;;;;;;;;;;4977018;28;20420;-74
2024/02/03 13:30:15;;;;;;;1.00;0.90;;;;;;;;;;4977045;28;20426;-74
2024/02/03 13:32:41;;;;;;;0.90;0.80;;;;;;;;;;4976932;28;20415;-75
2024/02/03 13:35:07;;;;;;;0.83;0.80;;;;;;;;;;4977438;28;20499;-74
2024/02/03 13:37:34;;;;;;;1.03;0.93;;;;;;;;;;4976649;28;20452;-74
2024/02/03 13:40:01;;;;;;;1.33;0.90;;;;;;;;;;4977053;28;20415;-73
2024/02/03 13:42:27;;;;;;;0.80;0.70;;;;;;;;;;4980131;28;20443;-74
2024/02/03 13:44:53;;;;;;;0.90;0.90;;;;;;;;;;4976253;28;20910;-76
2024/02/03 13:47:19;;;;;;;1.57;0.90;;;;;;;;;;4976003;28;20431;-74
2024/02/03 13:49:45;;;;;;;0.90;0.80;;;;;;;;;;4976254;28;20504;-74
2024/02/03 13:52:12;;;;;;;1.10;0.80;;;;;;;;;;4976429;28;20524;-73
2024/02/03 13:54:38;;;;;;;0.83;0.80;;;;;;;;;;4977481;28;20447;-75
2024/02/03 13:57:05;;;;;;;1.57;1.30;;;;;;;;;;4976302;28;20428;-74
2024/02/03 13:59:31;;;;;;;1.43;0.73;;;;;;;;;;4976253;28;20531;-73
2024/02/03 14:01:57;;;;;;;0.83;0.70;;;;;;;;;;4976113;28;20577;-74
2024/02/03 14:04:23;;;;;;;1.37;0.80;;;;;;;;;;4977178;28;20499;-74
2024/02/03 14:06:49;;;;;;;1.77;0.80;;;;;;;;;;4977506;28;20452;-75
2024/02/03 14:09:15;;;;;;;1.07;0.80;;;;;;;;;;4976660;28;20416;-74
2024/02/03 14:11:41;;;;;;;1.37;0.90;;;;;;;;;;4975732;28;20504;-75
2024/02/03 14:14:07;;;;;;;0.67;0.60;;;;;;;;;;4975989;28;20446;-75
2024/02/03 14:16:33;;;;;;;1.00;0.93;;;;;;;;;;4982622;28;20431;-74
2024/02/03 14:18:59;;;;;;;1.03;1.00;;;;;;;;;;4978991;28;20471;-74
2024/02/03 14:21:25;;;;;;;1.07;1.00;;;;;;;;;;4976028;28;20933;-74
2024/02/03 14:23:51;;;;;;;0.73;0.73;;;;;;;;;;4974882;28;20412;-74
2024/02/03 14:26:17;;;;;;;1.00;0.90;;;;;;;;;;4979844;28;20853;-74
2024/02/03 14:28:43;;;;;;;1.27;0.93;;;;;;;;;;4975444;28;20416;-74
2024/02/03 14:31:09;;;;;;;3.03;0.90;;;;;;;;;;4975464;28;20435;-73
2024/02/03 14:33:35;;;;;;;1.23;1.00;;;;;;;;;;4975780;28;20424;-75
2024/02/03 14:36:01;;;;;;;1.00;0.90;;;;;;;;;;4975874;28;20728;-74
2024/02/03 14:38:27;;;;;;;0.97;0.90;;;;;;;;;;4975417;28;20466;-75
2024/02/03 14:40:53;;;;;;;1.10;1.00;;;;;;;;;;4975787;28;20489;-74
2024/02/03 14:43:19;;;;;;;0.97;0.90;;;;;;;;;;4976294;28;20498;-74
2024/02/03 14:45:45;;;;;;;0.90;0.80;;;;;;;;;;4976490;28;20412;-74
2024/02/03 14:48:11;;;;;;;1.30;0.77;;;;;;;;;;4978362;28;20467;-75
2024/02/03 14:50:37;;;;;;;1.47;0.93;;;;;;;;;;4978187;28;20792;-74
2024/02/03 14:53:03;;;;;;;1.43;0.90;;;;;;;;;;4975465;28;20426;-75
2024/02/03 14:55:29;;;;;;;0.93;0.90;;;;;;;;;;4975631;28;20430;-74
2024/02/03 14:57:55;;;;;;;1.10;1.00;;;;;;;;;;4975979;28;20463;-74
2024/02/03 15:00:21;;;;;;;0.80;0.70;;;;;;;;;;4974830;28;20423;-74
2024/02/03 15:02:47;;;;;;;0.90;0.80;;;;;;;;;;4975187;28;20407;-74
2024/02/03 15:05:13;;;;;;;1.00;0.90;;;;;;;;;;4975023;28;20926;-74
2024/02/03 15:07:39;;;;;;;2.50;1.00;;;;;;;;;;4975491;28;20416;-75
2024/02/03 15:10:06;;;;;;;1.60;1.07;;;;;;;;;;4974973;28;20407;-74
2024/02/03 15:12:33;;;;;;;3.23;0.90;;;;;;;;;;4975482;28;20507;-73
2024/02/03 15:15:00;;;;;;;2.53;1.13;;;;;;;;;;4976334;28;20507;-74
2024/02/03 15:17:26;;;;;;;0.97;0.90;;;;;;;;;;4975288;28;20460;-74
2024/02/03 15:19:53;;;;;;;1.27;1.17;;;;;;;;;;4975529;28;20907;-74
2024/02/03 15:22:19;;;;;;;1.23;1.10;;;;;;;;;;4975195;28;20439;-74
2024/02/03 15:24:45;;;;;;;1.50;1.20;;;;;;;;;;4974629;28;20503;-74
2024/02/03 15:27:11;;;;;;;1.60;1.13;;;;;;;;;;4975934;28;20447;-74
2024/02/03 15:29:38;;;;;;;1.47;1.00;;;;;;;;;;4976509;28;20475;-74
2024/02/03 15:32:05;;;;;;;2.40;1.40;;;;;;;;;;4977027;28;20462;-74
2024/02/03 15:34:31;;;;;;;3.17;1.07;;;;;;;;;;4976057;28;20416;-74
2024/02/03 15:36:58;;;;;;;0.90;0.80;;;;;;;;;;4974092;28;20412;-73
2024/02/03 15:39:24;;;;;;;1.40;1.00;;;;;;;;;;4975100;28;20423;-74
2024/02/03 15:41:50;;;;;;;1.20;1.10;;;;;;;;;;4974877;28;20434;-74
2024/02/03 15:44:16;;;;;;;1.10;1.00;;;;;;;;;;4975738;28;20412;-74
2024/02/03 15:46:42;;;;;;;1.20;1.10;;;;;;;;;;4972923;28;20415;-74
2024/02/03 15:49:08;;;;;;;1.00;0.90;;;;;;;;;;4974331;28;20412;-73
2024/02/03 15:51:38;;;;;;;0.90;0.90;;;;;;;;;;4975584;28;20518;-74
2024/02/03 15:54:04;;;;;;;1.27;1.17;;;;;;;;;;4973381;28;20424;-73
2024/02/03 15:56:31;;;;;;;1.10;1.00;;;;;;;;;;4979118;28;20416;-74
2024/02/03 15:58:58;;;;;;;1.00;0.90;;;;;;;;;;4980113;28;20467;-76
2024/02/03 16:01:24;;;;;;;1.13;1.10;;;;;;;;;;4975005;28;20457;-73
2024/02/03 16:03:50;;;;;;;1.00;0.90;;;;;;;;;;4973205;28;20419;-73
2024/02/03 16:06:16;;;;;;;4.27;1.40;;;;;;;;;;4975287;28;20839;-74
2024/02/03 16:08:44;;;;;;;2.03;1.00;;;;;;;;;;4974412;28;20448;-74
2024/02/03 16:11:10;;;;;;;1.30;1.23;;;;;;;;;;4974293;28;20431;-74
2024/02/03 16:13:40;;;;;;;1.00;1.00;;;;;;;;;;4977063;28;20919;-74
2024/02/03 16:16:06;;;;;;;0.93;0.83;;;;;;;;;;4985586;28;20411;-73
2024/02/03 16:18:32;;;;;;;1.63;1.03;;;;;;;;;;4985476;28;20560;-74
2024/02/03 16:20:58;;;;;;;1.10;1.00;;;;;;;;;;4979769;28;20435;-74
2024/02/03 16:23:24;;;;;;;3.90;1.50;;;;;;;;;;4976572;28;20410;-74
2024/02/03 16:25:50;;;;;;;2.10;1.53;;;;;;;;;;4974600;28;20403;-74
2024/02/03 16:28:17;;;;;;;2.40;1.60;;;;;;;;;;4974072;28;20419;-74
2024/02/03 16:30:43;;;;;;;1.27;1.20;;;;;;;;;;4974685;28;20448;-74
2024/02/03 16:33:11;;;;;;;1.33;1.03;;;;;;;;;;4977170;28;20934;-74
2024/02/03 16:35:37;;;;;;;2.30;1.47;;;;;;;;;;4976748;28;20424;-75
2024/02/03 16:38:03;;;;;;;1.80;1.10;;;;;;;;;;4976438;28;20843;-73
2024/02/03 16:40:29;;;;;;;1.40;1.30;;;;;;;;;;4977329;28;20993;-73
2024/02/03 16:42:55;;;;;;;1.73;1.57;;;;;;;;;;4977446;28;20408;-73
2024/02/03 16:45:21;;;;;;;1.60;1.37;;;;;;;;;;4976382;28;20796;-74
2024/02/03 16:47:47;;;;;;;1.70;1.20;;;;;;;;;;4976015;28;20412;-75
2024/02/03 16:50:13;;;;;;;1.03;1.00;;;;;;;;;;4977949;28;21003;-73
2024/02/03 16:52:39;;;;;;;2.40;1.57;;;;;;;;;;4978325;28;20451;-74
2024/02/03 16:55:05;;;;;;;2.50;1.73;;;;;;;;;;4980443;28;20440;-73
2024/02/03 16:57:31;;;;;;;2.63;1.77;;;;;;;;;;4980043;28;20459;-73
2024/02/03 16:59:57;;;;;;;2.10;1.23;;;;;;;;;;4979809;28;20487;-74
2024/02/03 17:02:25;;;;;;;3.20;2.50;;;;;;;;;;4980283;28;20451;-75
2024/02/03 17:04:51;;;;;;;3.17;1.87;;;;;;;;;;4979701;28;20436;-75
2024/02/03 17:07:18;;;;;;;6.00;1.70;;;;;;;;;;4984345;28;20415;-75
2024/02/03 17:09:44;;;;;;;4.07;1.60;;;;;;;;;;4985186;28;20424;-74
2024/02/03 17:12:10;;;;;;;2.50;1.90;;;;;;;;;;4983895;28;20502;-74
2024/02/03 17:14:36;;;;;;;3.93;1.80;;;;;;;;;;4983659;28;20416;-74
2024/02/03 17:17:02;;;;;;;2.07;1.50;;;;;;;;;;4979119;28;20498;-75
2024/02/03 17:19:28;;;;;;;2.10;1.63;;;;;;;;;;4978356;28;20470;-74
2024/02/03 17:21:56;;;;;;;2.13;1.77;;;;;;;;;;4978279;28;20444;-74
2024/02/03 17:24:23;;;;;;;3.70;1.70;;;;;;;;;;4977485;28;20447;-75
2024/02/03 17:26:49;;;;;;;2.90;1.43;;;;;;;;;;4977441;28;20408;-75
2024/02/03 17:29:17;;;;;;;2.80;1.93;;;;;;;;;;4977149;28;20412;-73
2024/02/03 17:31:43;;;;;;;1.70;1.60;;;;;;;;;;4976523;28;20443;-74
2024/02/03 17:34:09;;;;;;;1.40;1.20;;;;;;;;;;4977244;28;20411;-74
2024/02/03 17:36:36;;;;;;;1.60;1.50;;;;;;;;;;4977453;28;20927;-74
2024/02/03 17:39:03;;;;;;;2.03;1.70;;;;;;;;;;4979855;28;20459;-74
2024/02/03 17:41:29;;;;;;;2.50;1.73;;;;;;;;;;4977619;28;20428;-73
2024/02/03 17:43:55;;;;;;;3.07;1.70;;;;;;;;;;4975922;28;20459;-74
2024/02/03 17:46:21;;;;;;;3.77;2.43;;;;;;;;;;4985618;28;20412;-74
2024/02/03 17:48:47;;;;;;;6.97;2.20;;;;;;;;;;4977201;28;20815;-74
2024/02/03 17:51:13;;;;;;;2.90;1.77;;;;;;;;;;4981310;28;20463;-74
2024/02/03 17:53:39;;;;;;;3.77;2.10;;;;;;;;;;4982005;28;20416;-74
2024/02/03 17:56:06;;;;;;;2.80;2.03;;;;;;;;;;4981450;28;20416;-74
2024/02/03 17:58:32;;;;;;;2.80;1.83;;;;;;;;;;4979857;28;20546;-74
2024/02/03 18:00:58;;;;;;;3.10;2.03;;;;;;;;;;4976272;28;20471;-73
2024/02/03 18:03:26;;;;;;;2.87;1.80;;;;;;;;;;4976704;28;20895;-73
2024/02/03 18:05:52;;;;;;;3.03;1.90;;;;;;;;;;4976966;28;20440;-74
2024/02/03 18:08:18;;;;;;;4.60;2.47;;;;;;;;;;4987639;28;20934;-73
2024/02/03 18:10:47;;;;;;;2.40;1.40;;;;;;;;;;4987946;28;20463;-73
2024/02/03 18:13:13;;;;;;;1.90;1.63;;;;;;;;;;4988993;28;20497;-75
2024/02/03 18:15:39;;;;;;;1.70;1.53;;;;;;;;;;4975356;23;20528;-76
2024/02/03 18:18:05;;;;;;;3.27;1.80;;;;;;;;;;4955810;29;20563;-74
2024/02/03 18:20:31;;;;;;;5.07;1.87;;;;;;;;;;4954226;29;20792;-76
2024/02/03 18:22:58;;;;;;;5.80;1.83;;;;;;;;;;4955651;28;20789;-74
2024/02/03 18:25:25;;;;;;;2.60;1.90;;;;;;;;;;4955437;28;20436;-75
2024/02/03 18:27:51;;;;;;;3.60;1.77;;;;;;;;;;4955953;28;20742;-75
2024/02/03 18:30:17;;;;;;;2.03;1.87;;;;;;;;;;4953985;29;20643;-75
2024/02/03 18:32:45;;;;;;;5.43;2.50;;;;;;;;;;4954581;29;20736;-75
2024/02/03 18:35:11;;;;;;;3.57;2.10;;;;;;;;;;4954127;28;21013;-75
2024/02/03 18:37:37;;;;;;;2.53;1.70;;;;;;;;;;4953947;29;20840;-75
2024/02/03 18:40:03;;;;;;;3.33;2.03;;;;;;;;;;4954462;29;20424;-75
2024/02/03 18:42:29;;;;;;;3.37;2.20;;;;;;;;;;4957404;29;20476;-75
2024/02/03 18:44:55;;;;;;;3.77;2.00;;;;;;;;;;4955769;28;20436;-75
2024/02/03 18:47:21;;;;;;;4.13;2.70;;;;;;;;;;4955157;29;20472;-75
2024/02/03 18:49:47;;;;;;;4.60;2.53;;;;;;;;;;4953770;29;20448;-74
2024/02/03 18:52:13;;;;;;;4.23;2.20;;;;;;;;;;4955446;29;20543;-75
2024/02/03 18:54:42;;;;;;;4.30;2.27;;;;;;;;;;4955081;28;20464;-75
2024/02/03 18:57:08;;;;;;;5.93;2.30;;;;;;;;;;4954865;28;20499;-75
2024/02/03 18:59:35;;;;;;;6.23;2.43;;;;;;;;;;4953935;29;20496;-74
2024/02/03 19:02:01;;;;;;;9.50;3.13;;;;;;;;;;4955049;28;20408;-75
2024/02/03 19:04:27;;;;;;;11.90;3.93;;;;;;;;;;4955027;28;20459;-75
2024/02/03 19:06:53;;;;;;;7.60;4.60;;;;;;;;;;4955220;29;20409;-74
2024/02/03 19:09:22;;;;;;;7.57;3.17;;;;;;;;;;4954630;29;20421;-74
2024/02/03 19:11:49;;;;;;;5.93;3.10;;;;;;;;;;4954917;29;20417;-74
2024/02/03 19:14:15;;;;;;;5.53;3.13;;;;;;;;;;4953378;28;20515;-75
2024/02/03 19:16:41;;;;;;;3.63;2.83;;;;;;;;;;4954801;29;20412;-75
2024/02/03 19:19:07;;;;;;;2.87;2.23;;;;;;;;;;4954993;29;20531;-75
2024/02/03 19:21:33;;;;;;;2.27;1.80;;;;;;;;;;4954926;29;20417;-75
2024/02/03 19:23:59;;;;;;;3.90;2.00;;;;;;;;;;4954789;28;20437;-76
2024/02/03 19:26:25;;;;;;;2.40;2.00;;;;;;;;;;4954967;29;20900;-76
2024/02/03 19:28:51;;;;;;;2.47;2.00;;;;;;;;;;4953407;29;20429;-76
2024/02/03 19:31:17;;;;;;;5.23;2.67;;;;;;;;;;4956421;29;20424;-75
2024/02/03 19:33:43;;;;;;;6.70;2.33;;;;;;;;;;4954907;28;20413;-76
2024/02/03 19:36:09;;;;;;;3.27;1.93;;;;;;;;;;4955935;29;20420;-76
2024/02/03 19:38:35;;;;;;;3.73;2.20;;;;;;;;;;4954273;29;20543;-77
2024/02/03 19:41:01;;;;;;;4.47;2.10;;;;;;;;;;4954448;29;20822;-75
2024/02/03 19:43:27;;;;;;;3.20;2.00;;;;;;;;;;4954485;29;20492;-75
2024/02/03 19:45:53;;;;;;;3.50;2.37;;;;;;;;;;4955150;28;20516;-76
2024/02/03 19:48:19;;;;;;;6.53;2.47;;;;;;;;;;4954718;29;20423;-76
2024/02/03 19:50:45;;;;;;;2.70;2.20;;;;;;;;;;4972915;29;20472;-75
2024/02/03 19:53:11;;;;;;;1.53;1.40;;;;;;;;;;4967517;29;20706;-75
2024/02/03 19:55:37;;;;;;;6.20;2.30;;;;;;;;;;4954889;28;20550;-75
2024/02/03 19:58:03;;;;;;;3.07;2.10;;;;;;;;;;4958075;29;20902;-74
2024/02/03 20:00:29;;;;;;;2.13;1.83;;;;;;;;;;4967833;29;20428;-74
2024/02/03 20:02:55;;;;;;;7.10;2.10;;;;;;;;;;4956480;29;20412;-75
2024/02/03 20:05:21;;;;;;;7.57;2.30;;;;;;;;;;4953651;28;20983;-74
2024/02/03 20:07:46;;;;;;;6.17;2.17;;;;;;;;;;4962903;28;20444;-75
2024/02/03 20:10:14;;;;;;;4.10;2.50;;;;;;;;;;4960457;29;20460;-75
2024/02/03 20:12:40;;;;;;;8.30;2.37;;;;;;;;;;4966049;29;20456;-75
2024/02/03 20:15:07;;;;;;;4.53;2.43;;;;;;;;;;4964655;28;20455;-75
2024/02/03 20:17:33;;;;;;;2.50;2.30;;;;;;;;;;4959619;29;20674;-75
2024/02/03 20:19:59;;;;;;;7.40;2.40;;;;;;;;;;4960044;29;20440;-75
2024/02/03 20:22:25;;;;;;;2.80;2.27;;;;;;;;;;4959126;29;20408;-75
2024/02/03 20:24:51;;;;;;;3.50;2.10;;;;;;;;;;4959518;28;20432;-76
2024/02/03 20:27:17;;;;;;;5.43;2.77;;;;;;;;;;4970507;29;20448;-75
2024/02/03 20:29:43;;;;;;;2.93;2.23;;;;;;;;;;4959928;29;20825;-75
2024/02/03 20:32:09;;;;;;;2.43;2.10;;;;;;;;;;4959952;28;20895;-76
2024/02/03 20:34:35;;;;;;;5.53;2.20;;;;;;;;;;4958189;28;20944;-75